sensor_id;sensor_type;location;lat;lon;timestamp;temperature;humidity
20498;DHT22;10407;53.238;10.448;2023-02-04T00:00:25;4.90;99.90
20498;DHT22;10407;53.238;10.448;2023-02-04T00:02:54;5.00;99.90
20498;DHT22;10407;53.238;10.448;2023-02-04T00:05:21;5.10;99.90
20498;DHT22;10407;53.238;10.448;2023-02-04T00:07:49;5.20;99.90
20498;DHT22;10407;53.238;10.448;2023-02-04T00:10:17;5.20;99.90
20498;DHT22;10407;53.238;10.448;2023-02-04T00:12:44;5.40;99.90
20498;DHT22;10407;53.238;10.448;2023-02-04T00:15:11;5.40;99.90
20498;DHT22;10407;53.238;10.448;2023-02-04T00:17:39;5.40;99.90
20498;DHT22;10407;53.238;10.448;2023-02-04T00:20:07;5.60;99.90
20498;DHT22;10407;53.238;10.448;2023-02-04T00:22:34;5.40;99.90
20498;DHT22;10407;53.238;10.448;2023-02-04T00:25:02;5.20;99.90
20498;DHT22;10407;53.238;10.448;2023-02-04T00:27:30;5.30;99.90
20498;DHT22;10407;53.238;10.448;2023-02-04T00:29:57;5.40;99.90
20498;DHT22;10407;53.238;10.448;2023-02-04T00:32:25;5.50;99.90
20498;DHT22;10407;53.238;10.448;2023-02-04T00:34:52;5.50;99.90
20498;DHT22;10407;53.238;10.448;2023-02-04T00:37:20;5.40;99.90
20498;DHT22;10407;53.238;10.448;2023-02-04T00:39:47;5.40;99.90
20498;DHT22;10407;53.238;10.448;2023-02-04T00:42:15;5.30;99.90
20498;DHT22;10407;53.238;10.448;2023-02-04T00:44:43;5.10;99.90
20498;DHT22;10407;53.238;10.448;2023-02-04T00:47:11;5.20;99.90
20498;DHT22;10407;53.238;10.448;2023-02-04T00:49:38;5.30;99.90
20498;DHT22;10407;53.238;10.448;2023-02-04T00:52:06;5.40;99.90
20498;DHT22;10407;53.238;10.448;2023-02-04T00:54:34;5.40;99.90
20498;DHT22;10407;53.238;10.448;2023-02-04T00:57:01;5.40;99.90
20498;DHT22;10407;53.238;10.448;2023-02-04T00:59:29;5.30;99.90
20498;DHT22;10407;53.238;10.448;2023-02-04T01:01:57;5.40;99.90
20498;DHT22;10407;53.238;10.448;2023-02-04T01:04:25;5.40;99.90
20498;DHT22;10407;53.238;10.448;2023-02-04T01:06:53;5.40;99.90
20498;DHT22;10407;53.238;10.448;2023-02-04T01:09:21;5.40;99.90
20498;DHT22;10407;53.238;10.448;2023-02-04T01:11:48;5.30;99.90
20498;DHT22;10407;53.238;10.448;2023-02-04T01:14:16;5.50;99.90
20498;DHT22;10407;53.238;10.448;2023-02-04T01:16:44;5.60;99.90
20498;DHT22;10407;53.238;10.448;2023-02-04T01:19:12;5.60;99.90
20498;DHT22;10407;53.238;10.448;2023-02-04T01:21:39;5.60;99.90
20498;DHT22;10407;53.238;10.448;2023-02-04T01:24:07;5.50;99.90
20498;DHT22;10407;53.238;10.448;2023-02-04T01:26:35;5.50;99.90
20498;DHT22;10407;53.238;10.448;2023-02-04T01:29:02;5.50;99.90
20498;DHT22;10407;53.238;10.448;2023-02-04T01:31:30;5.50;99.90
20498;DHT22;10407;53.238;10.448;2023-02-04T01:33:59;5.50;99.90
20498;DHT22;10407;53.238;10.448;2023-02-04T01:36:27;5.50;99.90
20498;DHT22;10407;53.238;10.448;2023-02-04T01:38:54;5.50;99.90
20498;DHT22;10407;53.238;10.448;2023-02-04T01:41:23;5.50;99.90
20498;DHT22;10407;53.238;10.448;2023-02-04T01:43:52;5.50;99.90
20498;DHT22;10407;53.238;10.448;2023-02-04T01:46:19;5.30;99.90
20498;DHT22;10407;53.238;10.448;2023-02-04T01:48:47;5.50;99.90
20498;DHT22;10407;53.238;10.448;2023-02-04T01:51:18;5.40;99.90
20498;DHT22;10407;53.238;10.448;2023-02-04T01:53:45;5.40;99.90
20498;DHT22;10407;53.238;10.448;2023-02-04T01:56:18;5.40;99.90
20498;DHT22;10407;53.238;10.448;2023-02-04T01:58:47;5.40;99.90
20498;DHT22;10407;53.238;10.448;2023-02-04T02:01:40;5.30;99.90
20498;DHT22;10407;53.238;10.448;2023-02-04T02:04:10;5.40;99.90
20498;DHT22;10407;53.238;10.448;2023-02-04T02:06:40;5.40;99.90
20498;DHT22;10407;53.238;10.448;2023-02-04T02:09:08;5.30;99.90
20498;DHT22;10407;53.238;10.448;2023-02-04T02:11:36;5.40;99.90
20498;DHT22;10407;53.238;10.448;2023-02-04T02:14:04;5.40;99.90
20498;DHT22;10407;53.238;10.448;2023-02-04T02:16:31;5.30;99.90
20498;DHT22;10407;53.238;10.448;2023-02-04T02:18:59;5.40;99.90
20498;DHT22;10407;53.238;10.448;2023-02-04T02:21:34;5.40;99.90
20498;DHT22;10407;53.238;10.448;2023-02-04T02:24:04;5.40;99.90
20498;DHT22;10407;53.238;10.448;2023-02-04T02:26:29;5.40;99.90
20498;DHT22;10407;53.238;10.448;2023-02-04T02:28:56;5.40;99.90
20498;DHT22;10407;53.238;10.448;2023-02-04T02:31:24;5.40;99.90
20498;DHT22;10407;53.238;10.448;2023-02-04T02:33:51;5.20;99.90
20498;DHT22;10407;53.238;10.448;2023-02-04T02:36:19;5.10;99.90
20498;DHT22;10407;53.238;10.448;2023-02-04T02:38:48;5.20;99.90
20498;DHT22;10407;53.238;10.448;2023-02-04T02:41:17;5.00;99.90
20498;DHT22;10407;53.238;10.448;2023-02-04T02:43:45;5.00;99.90
20498;DHT22;10407;53.238;10.448;2023-02-04T02:46:12;5.00;99.90
20498;DHT22;10407;53.238;10.448;2023-02-04T02:48:40;5.00;99.90
20498;DHT22;10407;53.238;10.448;2023-02-04T02:51:08;5.00;99.90
20498;DHT22;10407;53.238;10.448;2023-02-04T02:53:35;4.90;99.90
20498;DHT22;10407;53.238;10.448;2023-02-04T02:56:03;4.80;99.90
20498;DHT22;10407;53.238;10.448;2023-02-04T02:58:33;4.70;99.90
20498;DHT22;10407;53.238;10.448;2023-02-04T03:01:04;4.70;99.90
20498;DHT22;10407;53.238;10.448;2023-02-04T03:03:34;4.60;99.90
20498;DHT22;10407;53.238;10.448;2023-02-04T03:06:18;4.60;99.90
20498;DHT22;10407;53.238;10.448;2023-02-04T03:08:43;4.70;99.90
20498;DHT22;10407;53.238;10.448;2023-02-04T03:11:11;4.60;99.90
20498;DHT22;10407;53.238;10.448;2023-02-04T03:13:39;4.60;99.90
20498;DHT22;10407;53.238;10.448;2023-02-04T03:16:07;4.60;99.90
20498;DHT22;10407;53.238;10.448;2023-02-04T03:18:35;4.70;99.90
20498;DHT22;10407;53.238;10.448;2023-02-04T03:21:04;4.70;99.90
20498;DHT22;10407;53.238;10.448;2023-02-04T03:23:33;4.60;99.90
20498;DHT22;10407;53.238;10.448;2023-02-04T03:26:02;4.70;99.90
20498;DHT22;10407;53.238;10.448;2023-02-04T03:28:30;4.70;99.90
20498;DHT22;10407;53.238;10.448;2023-02-04T03:30:58;4.70;99.90
20498;DHT22;10407;53.238;10.448;2023-02-04T03:33:27;4.70;99.90
20498;DHT22;10407;53.238;10.448;2023-02-04T03:35:58;4.60;99.90
20498;DHT22;10407;53.238;10.448;2023-02-04T03:38:26;4.60;99.90
20498;DHT22;10407;53.238;10.448;2023-02-04T03:40:54;4.70;99.90
20498;DHT22;10407;53.238;10.448;2023-02-04T03:43:21;4.50;99.90
20498;DHT22;10407;53.238;10.448;2023-02-04T03:45:49;4.40;99.90
20498;DHT22;10407;53.238;10.448;2023-02-04T03:48:16;4.30;99.90
20498;DHT22;10407;53.238;10.448;2023-02-04T03:50:44;4.40;99.90
20498;DHT22;10407;53.238;10.448;2023-02-04T03:53:11;4.40;99.90
20498;DHT22;10407;53.238;10.448;2023-02-04T03:55:39;4.50;99.90
20498;DHT22;10407;53.238;10.448;2023-02-04T03:58:06;4.70;99.90
20498;DHT22;10407;53.238;10.448;2023-02-04T04:00:34;4.70;99.90
20498;DHT22;10407;53.238;10.448;2023-02-04T04:03:01;4.70;99.90
20498;DHT22;10407;53.238;10.448;2023-02-04T04:05:29;4.60;99.90
20498;DHT22;10407;53.238;10.448;2023-02-04T04:07:57;4.60;99.90
20498;DHT22;10407;53.238;10.448;2023-02-04T04:10:25;4.60;99.90
20498;DHT22;10407;53.238;10.448;2023-02-04T04:12:54;4.70;99.90
20498;DHT22;10407;53.238;10.448;2023-02-04T04:15:22;4.70;99.90
20498;DHT22;10407;53.238;10.448;2023-02-04T04:17:50;4.70;99.90
20498;DHT22;10407;53.238;10.448;2023-02-04T04:20:17;4.70;99.90
20498;DHT22;10407;53.238;10.448;2023-02-04T04:22:45;4.70;99.90
20498;DHT22;10407;53.238;10.448;2023-02-04T04:25:12;4.80;99.90
20498;DHT22;10407;53.238;10.448;2023-02-04T04:27:41;4.70;99.90
20498;DHT22;10407;53.238;10.448;2023-02-04T04:30:10;4.70;99.90
20498;DHT22;10407;53.238;10.448;2023-02-04T04:32:37;4.40;99.90
20498;DHT22;10407;53.238;10.448;2023-02-04T04:35:05;4.30;99.90
20498;DHT22;10407;53.238;10.448;2023-02-04T04:37:33;4.40;99.90
20498;DHT22;10407;53.238;10.448;2023-02-04T04:40:01;4.50;99.90
20498;DHT22;10407;53.238;10.448;2023-02-04T04:42:28;4.50;99.90
20498;DHT22;10407;53.238;10.448;2023-02-04T04:44:56;4.50;99.90
20498;DHT22;10407;53.238;10.448;2023-02-04T04:47:23;4.50;99.90
20498;DHT22;10407;53.238;10.448;2023-02-04T04:49:51;4.50;99.90
20498;DHT22;10407;53.238;10.448;2023-02-04T04:52:18;4.50;99.90
20498;DHT22;10407;53.238;10.448;2023-02-04T04:54:46;4.50;99.90
20498;DHT22;10407;53.238;10.448;2023-02-04T04:57:13;4.60;99.90
20498;DHT22;10407;53.238;10.448;2023-02-04T04:59:41;4.60;99.90
20498;DHT22;10407;53.238;10.448;2023-02-04T05:02:08;4.50;99.90
20498;DHT22;10407;53.238;10.448;2023-02-04T05:04:36;4.40;99.90
20498;DHT22;10407;53.238;10.448;2023-02-04T05:07:03;4.10;99.90
20498;DHT22;10407;53.238;10.448;2023-02-04T05:09:31;4.10;99.90
20498;DHT22;10407;53.238;10.448;2023-02-04T05:11:58;4.10;99.90
20498;DHT22;10407;53.238;10.448;2023-02-04T05:14:26;4.10;99.90
20498;DHT22;10407;53.238;10.448;2023-02-04T05:16:53;4.00;99.90
20498;DHT22;10407;53.238;10.448;2023-02-04T05:19:21;4.00;99.90
20498;DHT22;10407;53.238;10.448;2023-02-04T05:21:48;3.90;99.90
20498;DHT22;10407;53.238;10.448;2023-02-04T05:24:16;3.90;99.90
20498;DHT22;10407;53.238;10.448;2023-02-04T05:26:43;4.00;99.90
20498;DHT22;10407;53.238;10.448;2023-02-04T05:29:11;3.80;99.90
20498;DHT22;10407;53.238;10.448;2023-02-04T05:31:38;4.00;99.90
20498;DHT22;10407;53.238;10.448;2023-02-04T05:34:06;4.20;99.90
20498;DHT22;10407;53.238;10.448;2023-02-04T05:36:33;4.30;99.90
20498;DHT22;10407;53.238;10.448;2023-02-04T05:39:01;4.30;99.90
20498;DHT22;10407;53.238;10.448;2023-02-04T05:41:28;4.10;99.90
20498;DHT22;10407;53.238;10.448;2023-02-04T05:43:56;3.90;99.90
20498;DHT22;10407;53.238;10.448;2023-02-04T05:46:23;4.10;99.90
20498;DHT22;10407;53.238;10.448;2023-02-04T05:48:51;4.20;99.90
20498;DHT22;10407;53.238;10.448;2023-02-04T05:51:18;4.20;99.90
20498;DHT22;10407;53.238;10.448;2023-02-04T05:53:46;4.20;99.90
20498;DHT22;10407;53.238;10.448;2023-02-04T05:56:13;4.30;99.90
20498;DHT22;10407;53.238;10.448;2023-02-04T05:58:41;4.30;99.90
20498;DHT22;10407;53.238;10.448;2023-02-04T06:01:09;4.30;99.90
20498;DHT22;10407;53.238;10.448;2023-02-04T06:03:36;4.30;99.90
20498;DHT22;10407;53.238;10.448;2023-02-04T06:06:04;4.20;99.90
20498;DHT22;10407;53.238;10.448;2023-02-04T06:08:32;4.00;99.90
20498;DHT22;10407;53.238;10.448;2023-02-04T06:10:59;3.60;99.90
20498;DHT22;10407;53.238;10.448;2023-02-04T06:13:27;3.60;99.90
20498;DHT22;10407;53.238;10.448;2023-02-04T06:15:54;3.50;99.90
20498;DHT22;10407;53.238;10.448;2023-02-04T06:18:22;3.30;99.90
20498;DHT22;10407;53.238;10.448;2023-02-04T06:20:49;3.10;99.90
20498;DHT22;10407;53.238;10.448;2023-02-04T06:23:17;3.30;99.90
20498;DHT22;10407;53.238;10.448;2023-02-04T06:25:44;3.20;99.90
20498;DHT22;10407;53.238;10.448;2023-02-04T06:28:13;3.20;99.90
20498;DHT22;10407;53.238;10.448;2023-02-04T06:30:41;3.20;99.90
20498;DHT22;10407;53.238;10.448;2023-02-04T06:33:09;3.30;99.90
20498;DHT22;10407;53.238;10.448;2023-02-04T06:35:37;3.20;99.90
20498;DHT22;10407;53.238;10.448;2023-02-04T06:38:04;3.10;99.90
20498;DHT22;10407;53.238;10.448;2023-02-04T06:40:32;3.00;99.90
20498;DHT22;10407;53.238;10.448;2023-02-04T06:42:59;3.00;99.90
20498;DHT22;10407;53.238;10.448;2023-02-04T06:45:27;3.00;99.90
20498;DHT22;10407;53.238;10.448;2023-02-04T06:47:54;2.90;99.90
20498;DHT22;10407;53.238;10.448;2023-02-04T06:50:22;2.90;99.90
20498;DHT22;10407;53.238;10.448;2023-02-04T06:52:49;2.90;99.90
20498;DHT22;10407;53.238;10.448;2023-02-04T06:55:17;2.90;99.90
20498;DHT22;10407;53.238;10.448;2023-02-04T06:57:45;2.90;99.90
20498;DHT22;10407;53.238;10.448;2023-02-04T07:00:12;3.10;99.90
20498;DHT22;10407;53.238;10.448;2023-02-04T07:02:40;2.90;99.90
20498;DHT22;10407;53.238;10.448;2023-02-04T07:05:09;2.70;99.90
20498;DHT22;10407;53.238;10.448;2023-02-04T07:07:36;2.70;99.90
20498;DHT22;10407;53.238;10.448;2023-02-04T07:10:04;2.80;99.90
20498;DHT22;10407;53.238;10.448;2023-02-04T07:12:32;2.80;99.90
20498;DHT22;10407;53.238;10.448;2023-02-04T07:14:59;2.70;99.90
20498;DHT22;10407;53.238;10.448;2023-02-04T07:17:27;2.70;99.90
20498;DHT22;10407;53.238;10.448;2023-02-04T07:19:54;2.70;99.90
20498;DHT22;10407;53.238;10.448;2023-02-04T07:22:22;2.90;99.90
20498;DHT22;10407;53.238;10.448;2023-02-04T07:24:49;3.30;99.90
20498;DHT22;10407;53.238;10.448;2023-02-04T07:27:17;3.10;99.90
20498;DHT22;10407;53.238;10.448;2023-02-04T07:29:44;3.20;99.90
20498;DHT22;10407;53.238;10.448;2023-02-04T07:32:12;3.30;99.90
20498;DHT22;10407;53.238;10.448;2023-02-04T07:34:40;3.40;99.90
20498;DHT22;10407;53.238;10.448;2023-02-04T07:37:07;3.60;99.90
20498;DHT22;10407;53.238;10.448;2023-02-04T07:39:35;3.80;99.90
20498;DHT22;10407;53.238;10.448;2023-02-04T07:42:02;3.80;99.90
20498;DHT22;10407;53.238;10.448;2023-02-04T07:44:30;3.40;99.90
20498;DHT22;10407;53.238;10.448;2023-02-04T07:46:57;3.40;99.90
20498;DHT22;10407;53.238;10.448;2023-02-04T07:49:26;3.60;99.90
20498;DHT22;10407;53.238;10.448;2023-02-04T07:51:54;3.50;99.90
20498;DHT22;10407;53.238;10.448;2023-02-04T07:54:23;3.60;99.90
20498;DHT22;10407;53.238;10.448;2023-02-04T07:56:50;3.40;99.90
20498;DHT22;10407;53.238;10.448;2023-02-04T07:59:18;3.30;99.90
20498;DHT22;10407;53.238;10.448;2023-02-04T08:01:45;3.30;99.90
20498;DHT22;10407;53.238;10.448;2023-02-04T08:04:15;3.10;99.90
20498;DHT22;10407;53.238;10.448;2023-02-04T08:06:42;3.40;99.90
20498;DHT22;10407;53.238;10.448;2023-02-04T08:09:10;3.70;99.90
20498;DHT22;10407;53.238;10.448;2023-02-04T08:11:37;4.10;99.90
20498;DHT22;10407;53.238;10.448;2023-02-04T08:14:05;4.80;99.90
20498;DHT22;10407;53.238;10.448;2023-02-04T08:16:32;5.10;99.90
20498;DHT22;10407;53.238;10.448;2023-02-04T08:19:00;5.50;99.90
20498;DHT22;10407;53.238;10.448;2023-02-04T08:21:27;5.20;99.90
20498;DHT22;10407;53.238;10.448;2023-02-04T08:23:55;5.40;99.90
20498;DHT22;10407;53.238;10.448;2023-02-04T08:26:22;5.70;99.90
20498;DHT22;10407;53.238;10.448;2023-02-04T08:28:50;5.60;99.90
20498;DHT22;10407;53.238;10.448;2023-02-04T08:31:17;5.40;99.90
20498;DHT22;10407;53.238;10.448;2023-02-04T08:33:45;5.80;99.90
20498;DHT22;10407;53.238;10.448;2023-02-04T08:36:12;5.80;99.90
20498;DHT22;10407;53.238;10.448;2023-02-04T08:38:40;6.00;99.90
20498;DHT22;10407;53.238;10.448;2023-02-04T08:41:07;5.90;99.90
20498;DHT22;10407;53.238;10.448;2023-02-04T08:43:35;5.50;99.90
20498;DHT22;10407;53.238;10.448;2023-02-04T08:46:03;5.50;99.90
20498;DHT22;10407;53.238;10.448;2023-02-04T08:48:30;5.10;99.90
20498;DHT22;10407;53.238;10.448;2023-02-04T08:50:58;5.10;99.90
20498;DHT22;10407;53.238;10.448;2023-02-04T08:53:26;5.90;99.90
20498;DHT22;10407;53.238;10.448;2023-02-04T08:55:53;6.40;99.90
20498;DHT22;10407;53.238;10.448;2023-02-04T08:58:21;6.30;99.90
20498;DHT22;10407;53.238;10.448;2023-02-04T09:00:48;6.20;99.90
20498;DHT22;10407;53.238;10.448;2023-02-04T09:03:16;5.90;99.90
20498;DHT22;10407;53.238;10.448;2023-02-04T09:05:43;5.80;99.90
20498;DHT22;10407;53.238;10.448;2023-02-04T09:08:11;5.70;99.90
20498;DHT22;10407;53.238;10.448;2023-02-04T09:10:38;6.10;99.90
20498;DHT22;10407;53.238;10.448;2023-02-04T09:13:06;5.40;99.90
20498;DHT22;10407;53.238;10.448;2023-02-04T09:15:35;5.70;99.90
20498;DHT22;10407;53.238;10.448;2023-02-04T09:18:02;5.90;99.90
20498;DHT22;10407;53.238;10.448;2023-02-04T09:20:32;6.10;99.90
20498;DHT22;10407;53.238;10.448;2023-02-04T09:23:01;5.50;99.90
20498;DHT22;10407;53.238;10.448;2023-02-04T09:25:28;6.00;99.90
20498;DHT22;10407;53.238;10.448;2023-02-04T09:27:56;6.40;99.90
20498;DHT22;10407;53.238;10.448;2023-02-04T09:30:23;6.60;99.90
20498;DHT22;10407;53.238;10.448;2023-02-04T09:32:51;6.70;99.90
20498;DHT22;10407;53.238;10.448;2023-02-04T09:35:19;7.10;99.90
20498;DHT22;10407;53.238;10.448;2023-02-04T09:37:46;6.30;99.90
20498;DHT22;10407;53.238;10.448;2023-02-04T09:40:35;7.20;99.90
20498;DHT22;10407;53.238;10.448;2023-02-04T09:43:03;6.60;99.90
20498;DHT22;10407;53.238;10.448;2023-02-04T09:45:34;7.20;99.90
20498;DHT22;10407;53.238;10.448;2023-02-04T09:48:04;6.60;99.90
20498;DHT22;10407;53.238;10.448;2023-02-04T09:50:32;6.60;99.90
20498;DHT22;10407;53.238;10.448;2023-02-04T09:53:04;7.00;99.90
20498;DHT22;10407;53.238;10.448;2023-02-04T09:55:36;7.80;99.90
20498;DHT22;10407;53.238;10.448;2023-02-04T09:58:07;6.80;99.90
20498;DHT22;10407;53.238;10.448;2023-02-04T10:00:34;7.30;99.90
20498;DHT22;10407;53.238;10.448;2023-02-04T10:03:02;6.70;99.90
20498;DHT22;10407;53.238;10.448;2023-02-04T10:05:32;6.60;99.90
20498;DHT22;10407;53.238;10.448;2023-02-04T10:08:03;7.00;99.90
20498;DHT22;10407;53.238;10.448;2023-02-04T10:10:31;6.60;99.90
20498;DHT22;10407;53.238;10.448;2023-02-04T10:13:00;6.10;99.90
20498;DHT22;10407;53.238;10.448;2023-02-04T10:15:29;7.10;99.90
20498;DHT22;10407;53.238;10.448;2023-02-04T10:18:00;7.60;99.90
20498;DHT22;10407;53.238;10.448;2023-02-04T10:20:27;6.80;99.90
20498;DHT22;10407;53.238;10.448;2023-02-04T10:22:55;6.30;99.90
20498;DHT22;10407;53.238;10.448;2023-02-04T10:25:24;6.00;99.90
20498;DHT22;10407;53.238;10.448;2023-02-04T10:27:57;7.00;99.90
20498;DHT22;10407;53.238;10.448;2023-02-04T10:30:27;6.70;99.90
20498;DHT22;10407;53.238;10.448;2023-02-04T10:32:56;6.60;99.90
20498;DHT22;10407;53.238;10.448;2023-02-04T10:35:24;7.10;99.90
20498;DHT22;10407;53.238;10.448;2023-02-04T10:38:08;7.20;99.90
20498;DHT22;10407;53.238;10.448;2023-02-04T10:40:34;6.40;99.90
20498;DHT22;10407;53.238;10.448;2023-02-04T10:43:10;6.80;99.90
20498;DHT22;10407;53.238;10.448;2023-02-04T10:45:37;7.70;99.90
20498;DHT22;10407;53.238;10.448;2023-02-04T10:48:05;7.50;99.90
20498;DHT22;10407;53.238;10.448;2023-02-04T10:50:33;8.20;99.90
20498;DHT22;10407;53.238;10.448;2023-02-04T10:53:01;8.30;99.90
20498;DHT22;10407;53.238;10.448;2023-02-04T10:55:47;8.40;99.90
20498;DHT22;10407;53.238;10.448;2023-02-04T10:58:19;7.60;99.90
20498;DHT22;10407;53.238;10.448;2023-02-04T11:00:47;8.10;99.90
20498;DHT22;10407;53.238;10.448;2023-02-04T11:03:18;8.60;99.90
20498;DHT22;10407;53.238;10.448;2023-02-04T11:05:45;7.70;99.90
20498;DHT22;10407;53.238;10.448;2023-02-04T11:08:21;7.80;99.90
20498;DHT22;10407;53.238;10.448;2023-02-04T11:10:54;7.10;99.90
20498;DHT22;10407;53.238;10.448;2023-02-04T11:13:24;7.30;99.90
20498;DHT22;10407;53.238;10.448;2023-02-04T11:16:28;6.90;99.90
20498;DHT22;10407;53.238;10.448;2023-02-04T11:18:59;6.70;99.90
20498;DHT22;10407;53.238;10.448;2023-02-04T11:21:39;7.10;99.90
20498;DHT22;10407;53.238;10.448;2023-02-04T11:26:44;7.20;99.90
20498;DHT22;10407;53.238;10.448;2023-02-04T11:29:30;7.60;99.90
20498;DHT22;10407;53.238;10.448;2023-02-04T11:32:08;7.80;99.90
20498;DHT22;10407;53.238;10.448;2023-02-04T11:34:31;8.40;99.90
20498;DHT22;10407;53.238;10.448;2023-02-04T11:37:09;8.20;99.90
20498;DHT22;10407;53.238;10.448;2023-02-04T11:39:42;7.80;99.90
20498;DHT22;10407;53.238;10.448;2023-02-04T11:42:19;8.00;99.90
20498;DHT22;10407;53.238;10.448;2023-02-04T11:44:52;7.70;99.90
20498;DHT22;10407;53.238;10.448;2023-02-04T11:47:22;8.20;99.90
20498;DHT22;10407;53.238;10.448;2023-02-04T11:49:57;8.40;99.90
20498;DHT22;10407;53.238;10.448;2023-02-04T11:52:25;8.50;99.90
20498;DHT22;10407;53.238;10.448;2023-02-04T11:54:58;7.90;99.90
20498;DHT22;10407;53.238;10.448;2023-02-04T11:57:26;7.90;99.90
20498;DHT22;10407;53.238;10.448;2023-02-04T11:59:54;7.30;99.90
20498;DHT22;10407;53.238;10.448;2023-02-04T12:02:23;7.10;99.90
20498;DHT22;10407;53.238;10.448;2023-02-04T12:04:56;6.90;99.90
20498;DHT22;10407;53.238;10.448;2023-02-04T12:07:27;7.10;99.90
20498;DHT22;10407;53.238;10.448;2023-02-04T12:09:56;6.80;99.90
20498;DHT22;10407;53.238;10.448;2023-02-04T12:12:26;7.70;99.90
20498;DHT22;10407;53.238;10.448;2023-02-04T12:15:07;7.60;99.90
20498;DHT22;10407;53.238;10.448;2023-02-04T12:17:31;7.70;99.90
20498;DHT22;10407;53.238;10.448;2023-02-04T12:19:58;7.50;99.90
20498;DHT22;10407;53.238;10.448;2023-02-04T12:22:26;7.50;99.90
20498;DHT22;10407;53.238;10.448;2023-02-04T12:24:53;7.00;99.90
20498;DHT22;10407;53.238;10.448;2023-02-04T12:27:21;7.00;99.90
20498;DHT22;10407;53.238;10.448;2023-02-04T12:29:48;6.70;99.90
20498;DHT22;10407;53.238;10.448;2023-02-04T12:32:16;6.50;99.90
20498;DHT22;10407;53.238;10.448;2023-02-04T12:34:43;7.10;99.90
20498;DHT22;10407;53.238;10.448;2023-02-04T12:37:11;7.30;99.90
20498;DHT22;10407;53.238;10.448;2023-02-04T12:39:38;6.90;99.90
20498;DHT22;10407;53.238;10.448;2023-02-04T12:42:06;5.90;99.90
20498;DHT22;10407;53.238;10.448;2023-02-04T12:44:33;5.50;99.90
20498;DHT22;10407;53.238;10.448;2023-02-04T12:47:01;5.50;99.90
20498;DHT22;10407;53.238;10.448;2023-02-04T12:49:29;5.40;99.90
20498;DHT22;10407;53.238;10.448;2023-02-04T12:51:56;5.70;99.90
20498;DHT22;10407;53.238;10.448;2023-02-04T12:54:25;5.40;99.90
20498;DHT22;10407;53.238;10.448;2023-02-04T12:56:53;5.50;99.90
20498;DHT22;10407;53.238;10.448;2023-02-04T12:59:23;5.70;99.90
20498;DHT22;10407;53.238;10.448;2023-02-04T13:01:50;5.60;99.90
20498;DHT22;10407;53.238;10.448;2023-02-04T13:04:18;5.80;99.90
20498;DHT22;10407;53.238;10.448;2023-02-04T13:06:45;6.10;99.90
20498;DHT22;10407;53.238;10.448;2023-02-04T13:09:13;6.00;99.90
20498;DHT22;10407;53.238;10.448;2023-02-04T13:11:41;6.20;99.90
20498;DHT22;10407;53.238;10.448;2023-02-04T13:14:08;6.60;99.90
20498;DHT22;10407;53.238;10.448;2023-02-04T13:16:36;6.80;99.90
20498;DHT22;10407;53.238;10.448;2023-02-04T13:19:03;6.40;99.90
20498;DHT22;10407;53.238;10.448;2023-02-04T13:21:31;6.90;99.90
20498;DHT22;10407;53.238;10.448;2023-02-04T13:23:58;7.10;99.90
20498;DHT22;10407;53.238;10.448;2023-02-04T13:26:26;7.10;99.90
20498;DHT22;10407;53.238;10.448;2023-02-04T13:28:54;6.90;99.90
20498;DHT22;10407;53.238;10.448;2023-02-04T13:31:21;6.50;99.90
20498;DHT22;10407;53.238;10.448;2023-02-04T13:33:49;6.30;99.90
20498;DHT22;10407;53.238;10.448;2023-02-04T13:36:16;6.00;99.90
20498;DHT22;10407;53.238;10.448;2023-02-04T13:38:44;5.70;99.90
20498;DHT22;10407;53.238;10.448;2023-02-04T13:41:11;6.00;99.90
20498;DHT22;10407;53.238;10.448;2023-02-04T13:43:39;6.50;99.90
20498;DHT22;10407;53.238;10.448;2023-02-04T13:46:06;6.60;99.90
20498;DHT22;10407;53.238;10.448;2023-02-04T13:48:34;6.50;99.90
20498;DHT22;10407;53.238;10.448;2023-02-04T13:51:01;6.50;99.90
20498;DHT22;10407;53.238;10.448;2023-02-04T13:53:29;6.40;99.90
20498;DHT22;10407;53.238;10.448;2023-02-04T13:55:57;6.40;99.90
20498;DHT22;10407;53.238;10.448;2023-02-04T13:58:24;6.40;99.90
20498;DHT22;10407;53.238;10.448;2023-02-04T14:00:52;6.20;99.90
20498;DHT22;10407;53.238;10.448;2023-02-04T14:03:29;6.20;99.90
20498;DHT22;10407;53.238;10.448;2023-02-04T14:05:53;6.40;99.90
20498;DHT22;10407;53.238;10.448;2023-02-04T14:08:22;6.20;99.90
20498;DHT22;10407;53.238;10.448;2023-02-04T14:10:49;6.10;99.90
20498;DHT22;10407;53.238;10.448;2023-02-04T14:13:17;6.30;99.90
20498;DHT22;10407;53.238;10.448;2023-02-04T14:15:45;6.10;99.90
20498;DHT22;10407;53.238;10.448;2023-02-04T14:18:12;5.50;99.90
20498;DHT22;10407;53.238;10.448;2023-02-04T14:20:42;5.40;99.90
20498;DHT22;10407;53.238;10.448;2023-02-04T14:23:10;5.40;99.90
20498;DHT22;10407;53.238;10.448;2023-02-04T14:25:40;5.60;99.90
20498;DHT22;10407;53.238;10.448;2023-02-04T14:28:07;5.40;99.90
20498;DHT22;10407;53.238;10.448;2023-02-04T14:30:35;5.60;99.90
20498;DHT22;10407;53.238;10.448;2023-02-04T14:33:03;5.40;99.90
20498;DHT22;10407;53.238;10.448;2023-02-04T14:35:32;5.30;99.90
20498;DHT22;10407;53.238;10.448;2023-02-04T14:38:00;5.30;99.90
20498;DHT22;10407;53.238;10.448;2023-02-04T14:40:27;5.40;99.90
20498;DHT22;10407;53.238;10.448;2023-02-04T14:42:55;5.30;99.90
20498;DHT22;10407;53.238;10.448;2023-02-04T14:45:22;5.40;99.90
20498;DHT22;10407;53.238;10.448;2023-02-04T14:47:50;5.20;99.90
20498;DHT22;10407;53.238;10.448;2023-02-04T14:50:20;5.40;99.90
20498;DHT22;10407;53.238;10.448;2023-02-04T14:52:48;5.40;99.90
20498;DHT22;10407;53.238;10.448;2023-02-04T14:55:16;5.50;99.90
20498;DHT22;10407;53.238;10.448;2023-02-04T14:57:43;5.60;99.90
20498;DHT22;10407;53.238;10.448;2023-02-04T15:00:12;5.40;99.90
20498;DHT22;10407;53.238;10.448;2023-02-04T15:02:39;5.40;99.90
20498;DHT22;10407;53.238;10.448;2023-02-04T15:05:08;5.10;99.90
20498;DHT22;10407;53.238;10.448;2023-02-04T15:07:36;5.20;99.90
20498;DHT22;10407;53.238;10.448;2023-02-04T15:10:05;5.40;99.90
20498;DHT22;10407;53.238;10.448;2023-02-04T15:12:33;5.30;99.90
20498;DHT22;10407;53.238;10.448;2023-02-04T15:15:01;5.30;99.90
20498;DHT22;10407;53.238;10.448;2023-02-04T15:17:28;5.10;99.90
20498;DHT22;10407;53.238;10.448;2023-02-04T15:19:56;5.10;99.90
20498;DHT22;10407;53.238;10.448;2023-02-04T15:22:24;5.00;99.90
20498;DHT22;10407;53.238;10.448;2023-02-04T15:24:51;5.10;99.90
20498;DHT22;10407;53.238;10.448;2023-02-04T15:27:19;5.40;99.90
20498;DHT22;10407;53.238;10.448;2023-02-04T15:29:46;5.40;99.90
20498;DHT22;10407;53.238;10.448;2023-02-04T15:32:14;5.20;99.90
20498;DHT22;10407;53.238;10.448;2023-02-04T15:34:41;5.10;99.90
20498;DHT22;10407;53.238;10.448;2023-02-04T15:37:09;4.90;99.90
20498;DHT22;10407;53.238;10.448;2023-02-04T15:39:37;4.80;99.90